Dominia — ICFW — position and weather

sailwx.info

Track history (hours):
 
Tides and Currents Weather Stations Pressure Air Temp Water Temp Dewpoint Dewpoint Depression Visibility Wind Speed Wind Dir Waves Ship Positions

Dominia

Last reported at 2017-Aug-17 05:18 UTC. Time now 2017-Aug-17 17:34 UTC.
Position N 48°47' W 005°52'.

Length 166 m; draft 7 m.

Type: Ship. MMSI: 247273400.

Date/timePositionNaut miles runAvg speedWind from/ knotsBaromVisibWave heightAir tempDewpointWater temp
2017-Aug-17 05:18N 48°47' W 005°52'412.9
2017-Aug-17 05:00N 48°50' W 005°49'612.5
2017-Aug-17 04:30N 48°55' W 005°43'712.6
2017-Aug-17 03:56N 48°59' W 005°34'812.4
2017-Aug-17 03:16N 49°04' W 005°23'312.1
2017-Aug-17 03:00N 49°05' W 005°19'6210.9
2017-Aug-16 21:19N 49°38' W 003°59'411.3
2017-Aug-16 21:00N 49°40' W 003°54'611.6
2017-Aug-16 20:30N 49°43' W 003°46'612.1
2017-Aug-16 20:00N 49°46' W 003°38'612.7
2017-Aug-16 19:30N 49°49' W 003°30'612.8
2017-Aug-16 19:00N 49°52' W 003°21'713.0
2017-Aug-16 18:30N 49°55' W 003°12'713.0
2017-Aug-16 18:00N 49°58' W 003°03'612.6
2017-Aug-16 17:30N 50°01' W 002°54'612.4
2017-Aug-16 17:00N 50°02' W 002°45'612.0
2017-Aug-16 16:30N 50°04' W 002°36'611.4
2017-Aug-16 16:00N 50°05' W 002°27'510.9
2017-Aug-16 15:30N 50°07' W 002°19'510.5
2017-Aug-16 15:00N 50°08' W 002°11'510.1
2017-Aug-16 14:31N 50°09' W 002°03'5 9.9
2017-Aug-16 14:00N 50°11' W 001°56'5 9.8
2017-Aug-16 13:30N 50°12' W 001°49'510.1
2017-Aug-16 13:00N 50°13' W 001°41'510.5
2017-Aug-16 12:30N 50°14' W 001°33'611.2
2017-Aug-16 12:01N 50°16' W 001°25'611.9
2017-Aug-16 11:30N 50°18' W 001°15'812.7
2017-Aug-16 10:52N 50°20' W 001°03'613.6
2017-Aug-16 10:27N 50°21' W 000°55'613.8
2017-Aug-16 10:00N 50°23' W 000°45'713.9
2017-Aug-16 09:28N 50°25' W 000°34'613.9
2017-Aug-16 09:00N 50°27' W 000°24'713.8
2017-Aug-16 08:30N 50°28' W 000°14'713.6
2017-Aug-16 08:01N 50°30' W 000°04'713.5
2017-Aug-16 07:30N 50°32' E 000°07'713.2
2017-Aug-16 07:00N 50°33' E 000°17'713.0
2017-Aug-16 06:30N 50°35' E 000°27'612.6
2017-Aug-16 06:00N 50°37' E 000°36'612.3
2017-Aug-16 05:30N 50°40' E 000°44'612.0
2017-Aug-16 05:01N 50°44' E 000°52'611.8
2017-Aug-16 04:31N 50°48' E 000°59'611.7
2017-Aug-16 04:01N 50°52' E 001°05'611.8
2017-Aug-16 03:30N 50°56' E 001°12'612.2
2017-Aug-16 03:00N 51°00' E 001°19'713.0
2017-Aug-16 02:30N 51°04' E 001°28'714.2
2017-Aug-16 02:00N 51°08' E 001°37'714.5
2017-Aug-16 01:30N 51°13' E 001°45'714.5
2017-Aug-16 01:01N 51°19' E 001°51'713.6
2017-Aug-16 00:31N 51°25' E 001°58'612.0
2017-Aug-16 00:00N 51°23' E 002°07'612.8
2017-Aug-15 23:30N 51°21' E 002°16'612.8
2017-Aug-15 23:01N 51°22' E 002°26'612.6
2017-Aug-15 22:30N 51°23' E 002°36'611.4
2017-Aug-15 22:01N 51°22' E 002°45'612.5
2017-Aug-15 21:31N 51°23' E 002°55'612.5
2017-Aug-15 21:01N 51°24' E 003°05'612.9
2017-Aug-15 20:31N 51°25' E 003°15'713.1
2017-Aug-15 20:00N 51°25' E 003°26'611.4
2017-Aug-15 19:31N 51°26' E 003°35'611.5
2017-Aug-15 19:00N 51°23' E 003°43'611.7
2017-Aug-15 18:30N 51°21' E 003°52'510.4
2017-Aug-15 18:00N 51°25' E 003°58'3 6.1
2017-Aug-15 17:31N 51°24' E 004°02'5 9.2
2017-Aug-15 17:01N 51°23' E 004°09'4 8.3
2017-Aug-15 16:31N 51°21' E 004°15'1 2.4
2017-Aug-15 16:01N 51°21' E 004°17'0 0.0
2017-Aug-15 15:30N 51°21' E 004°17'0 0.8
2017-Aug-15 15:00N 51°21' E 004°18'1 1.7
2017-Aug-15 14:30N 51°20' E 004°18'0 0.6
2017-Aug-15 13:47N 51°20' E 004°18'0 0.0
2017-Aug-15 13:29N 51°20' E 004°18'0 0.0
2017-Aug-15 12:59N 51°20' E 004°18'0 0.0
2017-Aug-15 11:47N 51°20' E 004°18'0 0.0
2017-Aug-15 11:29N 51°20' E 004°18'0 0.0
2017-Aug-15 09:44N 51°20' E 004°18'0 0.0
2017-Aug-15 09:17N 51°20' E 004°18'0 0.0
2017-Aug-15 08:59N 51°20' E 004°18'0 0.0
2017-Aug-15 07:44N 51°20' E 004°18'0 0.0
2017-Aug-15 07:02N 51°20' E 004°18'0 0.0
2017-Aug-15 06:50N 51°20' E 004°18'0 0.0
2017-Aug-15 06:29N 51°20' E 004°18'0 0.0
2017-Aug-15 05:32N 51°20' E 004°18'0 0.0
2017-Aug-15 05:26N 51°20' E 004°18'0 0.0
2017-Aug-15 04:56N 51°20' E 004°18'0 0.0
2017-Aug-15 04:20N 51°20' E 004°18'0 0.0
2017-Aug-15 03:56N 51°20' E 004°18'0 0.0
2017-Aug-15 03:20N 51°20' E 004°18'0 0.0
2017-Aug-15 02:53N 51°20' E 004°18'0 0.0
2017-Aug-15 02:17N 51°20' E 004°18'0 0.0
2017-Aug-15 01:14N 51°20' E 004°18'0 0.0
2017-Aug-15 00:53N 51°20' E 004°18'0 0.0
2017-Aug-15 00:26N 51°20' E 004°18'0 0.0
2017-Aug-14 23:56N 51°20' E 004°18'0 0.0
2017-Aug-14 22:35N 51°20' E 004°18'0 0.0
2017-Aug-14 22:14N 51°20' E 004°18'0 0.0
2017-Aug-14 21:59N 51°20' E 004°18'0 0.0
2017-Aug-14 21:29N 51°20' E 004°18'0 0.0
2017-Aug-14 20:56N 51°20' E 004°18'0 0.0
2017-Aug-14 20:23N 51°20' E 004°18'0 0.0
2017-Aug-14 19:59N 51°20' E 004°18'0 0.0
2017-Aug-14 19:26N 51°20' E 004°18'0 0.0
2017-Aug-14 18:50N 51°20' E 004°18'0 0.0
2017-Aug-14 17:53N 51°20' E 004°18'0 0.0
2017-Aug-14 16:11N 51°20' E 004°18'0 0.0
2017-Aug-14 15:54N 51°20' E 004°18'0 0.3
2017-Aug-14 15:30N 51°20' E 004°18'2 4.7
2017-Aug-14 15:00N 51°18' E 004°20'0 0.0
2017-Aug-14 14:30N 51°18' E 004°20'0 0.0
2017-Aug-14 14:00N 51°18' E 004°20'0 0.0
2017-Aug-14 13:30N 51°18' E 004°20'0 0.0
2017-Aug-14 13:00N 51°18' E 004°20'0 0.0
2017-Aug-14 12:30N 51°18' E 004°20'0 0.0
2017-Aug-14 12:00N 51°18' E 004°20'0 0.0
2017-Aug-14 11:30N 51°18' E 004°20'0 0.0
2017-Aug-14 11:00N 51°18' E 004°20'0 0.0
2017-Aug-14 10:30N 51°18' E 004°20'0 0.0
2017-Aug-14 10:00N 51°18' E 004°20'0 0.0
2017-Aug-14 09:30N 51°18' E 004°20'0 0.0
2017-Aug-14 09:00N 51°18' E 004°20'0 0.0
2017-Aug-14 08:30N 51°18' E 004°20'0 0.0
2017-Aug-14 08:00N 51°18' E 004°20'0 0.0
2017-Aug-14 07:30N 51°18' E 004°20'0 0.0
2017-Aug-14 07:00N 51°18' E 004°20'0 0.0
2017-Aug-14 06:30N 51°18' E 004°20'0 0.0
2017-Aug-14 06:00N 51°18' E 004°20'0 0.0
2017-Aug-14 05:30N 51°18' E 004°20'0 0.0
2017-Aug-14 05:00N 51°18' E 004°20'0 0.0
2017-Aug-14 04:30N 51°18' E 004°20'0 0.0
2017-Aug-14 03:57N 51°18' E 004°20'0 0.0
2017-Aug-14 03:30N 51°18' E 004°20'0 0.0
2017-Aug-14 03:00N 51°18' E 004°20'0 0.0
2017-Aug-14 02:30N 51°18' E 004°20'0 0.0
2017-Aug-14 02:00N 51°18' E 004°20'0 0.0
2017-Aug-14 01:30N 51°18' E 004°20'0 0.0
2017-Aug-14 01:00N 51°18' E 004°20'0 0.0
2017-Aug-14 00:30N 51°18' E 004°20'0 0.0
2017-Aug-14 00:00N 51°18' E 004°20'0 0.0
2017-Aug-13 23:30N 51°18' E 004°20'0 0.0
2017-Aug-13 23:00N 51°18' E 004°20'0 0.0
2017-Aug-13 22:27N 51°18' E 004°20'0 0.0
2017-Aug-13 22:00N 51°18' E 004°20'0 0.0
2017-Aug-13 21:30N 51°18' E 004°20'0 0.0
2017-Aug-13 21:00N 51°18' E 004°20'0 0.0
2017-Aug-13 20:30N 51°18' E 004°20'0 0.0
2017-Aug-13 20:00N 51°18' E 004°20'0 0.0
2017-Aug-13 19:30N 51°18' E 004°20'0 0.0
2017-Aug-13 19:00N 51°18' E 004°20'0 0.0
2017-Aug-13 18:30N 51°18' E 004°20'0 0.0
2017-Aug-13 18:00N 51°18' E 004°20'0 0.0
2017-Aug-13 17:30N 51°18' E 004°20'0 0.0
2017-Aug-13 17:00N 51°18' E 004°20'0 0.0
2017-Aug-13 16:30N 51°18' E 004°20'0 0.0
2017-Aug-13 16:00N 51°18' E 004°20'0 0.0
2017-Aug-13 15:30N 51°18' E 004°20'0 0.0
2017-Aug-13 15:00N 51°18' E 004°20'0 0.0
2017-Aug-13 14:30N 51°18' E 004°20'0 0.0
2017-Aug-13 13:54N 51°18' E 004°20'0 0.0
2017-Aug-13 13:30N 51°18' E 004°20'0 0.0
2017-Aug-13 13:00N 51°18' E 004°20'0 0.0
2017-Aug-13 12:30N 51°18' E 004°20'0 0.0
2017-Aug-13 12:00N 51°18' E 004°20'0 0.0
2017-Aug-13 11:30N 51°18' E 004°20'0 0.0
2017-Aug-13 11:00N 51°18' E 004°20'0 0.0
2017-Aug-13 10:04N 51°18' E 004°20'0 0.0
2017-Aug-13 09:52N 51°18' E 004°20'0 0.0
2017-Aug-11 18:32N 51°18' E 004°20'0 0.1
2017-Aug-11 18:26N 51°18' E 004°20'0 0.0
2017-Aug-11 17:59N 51°18' E 004°20'0 0.0
2017-Aug-11 17:29N 51°18' E 004°20'0 0.0
2017-Aug-11 16:56N 51°18' E 004°20'0 0.0
2017-Aug-11 16:29N 51°18' E 004°20'0 0.0
2017-Aug-11 15:59N 51°18' E 004°20'0 0.0
2017-Aug-11 15:29N 51°18' E 004°20'0 0.0
2017-Aug-11 14:59N 51°18' E 004°20'0 0.0
2017-Aug-11 13:59N 51°18' E 004°20'0 0.0
2017-Aug-11 13:29N 51°18' E 004°20'0 0.0
2017-Aug-11 12:59N 51°18' E 004°20'0 0.0
2017-Aug-11 12:29N 51°18' E 004°20'0 0.0
2017-Aug-11 11:59N 51°18' E 004°20'0 0.0
2017-Aug-11 11:29N 51°18' E 004°20'0 0.0
2017-Aug-11 10:56N 51°18' E 004°20'0 0.0
2017-Aug-11 10:26N 51°18' E 004°20'0 0.0
2017-Aug-11 09:59N 51°18' E 004°20'0 0.0
2017-Aug-11 09:29N 51°18' E 004°20'0 0.0
2017-Aug-11 08:59N 51°18' E 004°20'0 0.0
2017-Aug-11 08:29N 51°18' E 004°20'0 0.0
2017-Aug-11 07:56N 51°18' E 004°20'0 0.0
2017-Aug-11 07:29N 51°18' E 004°20'0 0.0
2017-Aug-11 06:59N 51°18' E 004°20'0 0.0
2017-Aug-11 06:29N 51°18' E 004°20'0 0.0
2017-Aug-11 05:56N 51°18' E 004°20'0 0.0
2017-Aug-11 05:29N 51°18' E 004°20'0 0.0
2017-Aug-11 04:59N 51°18' E 004°20'0 0.0
2017-Aug-11 04:20N 51°18' E 004°20'0 0.0
2017-Aug-11 03:59N 51°18' E 004°20'0 0.0
2017-Aug-11 03:26N 51°18' E 004°20'0 0.0
2017-Aug-11 02:56N 51°18' E 004°20'0 0.0
2017-Aug-11 02:29N 51°18' E 004°20'0 0.0
2017-Aug-11 01:59N 51°18' E 004°20'0 0.0
2017-Aug-11 01:26N 51°18' E 004°20'0 0.0
2017-Aug-11 00:59N 51°18' E 004°20'0 0.0
2017-Aug-11 00:29N 51°18' E 004°20'0 0.0
2017-Aug-10 23:59N 51°18' E 004°20'0 0.0
2017-Aug-10 23:29N 51°18' E 004°20'0 0.0
2017-Aug-10 23:00N 51°18' E 004°20'1 1.2
2017-Aug-10 22:30N 51°18' E 004°20'3 5.3
2017-Aug-10 22:00N 51°20' E 004°18'1 1.0
2017-Aug-10 21:30N 51°21' E 004°17'0 0.0
2017-Aug-10 21:01N 51°21' E 004°17'0 0.0
2017-Aug-10 20:31N 51°21' E 004°17'0 0.3
2017-Aug-10 20:01N 51°21' E 004°17'2 4.1
2017-Aug-10 19:30N 51°21' E 004°14'3 6.1
2017-Aug-10 19:00N 51°23' E 004°10'4 8.6
2017-Aug-10 18:30N 51°23' E 004°03'4 8.5
2017-Aug-10 18:00N 51°26' E 003°59'5 9.8
2017-Aug-10 17:30N 51°22' E 003°55'5 9.9
2017-Aug-10 17:00N 51°21' E 003°47'510.2
2017-Aug-10 16:30N 51°25' E 003°42'510.2
2017-Aug-10 16:00N 51°25' E 003°34'510.5
2017-Aug-10 15:30N 51°25' E 003°25'713.1
2017-Aug-10 15:00N 51°25' E 003°15'713.2
2017-Aug-10 14:30N 51°24' E 003°04'713.1
2017-Aug-10 14:00N 51°22' E 002°54'713.3
2017-Aug-10 13:30N 51°22' E 002°44'4 8.2
2017-Aug-10 13:00N 51°22' E 002°37'611.8
2017-Aug-10 12:30N 51°21' E 002°28'612.4
2017-Aug-10 12:00N 51°19' E 002°19'611.6
2017-Aug-10 11:30N 51°16' E 002°11'611.1
2017-Aug-10 11:00N 51°13' E 002°03'510.3
2017-Aug-10 10:30N 51°11' E 001°56'5 9.7
2017-Aug-10 10:00N 51°08' E 001°49'5 9.4
2017-Aug-10 09:30N 51°05' E 001°44'5 9.0
2017-Aug-10 09:00N 51°02' E 001°38'4 8.9
2017-Aug-10 08:30N 50°59' E 001°33'5 9.2
2017-Aug-10 08:00N 50°55' E 001°29'5 9.3
2017-Aug-10 07:29N 50°50' E 001°27'5610.3
2017-Aug-10 02:06N 50°22' E 000°11'111.0
2017-Aug-10 02:00N 50°22' E 000°10'611.1
2017-Aug-10 01:30N 50°20' E 000°02'611.2
2017-Aug-10 01:00N 50°19' W 000°07'611.1
2017-Aug-10 00:30N 50°17' W 000°16'2312.5
2017-Aug-09 22:41N 50°12' W 000°50'214.0
2017-Aug-09 22:31N 50°11' W 000°54'714.3
2017-Aug-09 22:00N 50°10' W 001°05'714.7
2017-Aug-09 21:30N 50°07' W 001°16'714.9
2017-Aug-09 21:00N 50°05' W 001°27'715.0
2017-Aug-09 20:30N 50°03' W 001°38'815.1
2017-Aug-09 20:01N 50°02' W 001°49'714.8
2017-Aug-09 19:30N 50°00' W 002°01'714.2
2017-Aug-09 19:00N 49°58' W 002°11'1313.0
2017-Aug-09 18:02N 49°54' W 002°30'112.3
2017-Aug-09 17:55N 49°54' W 002°32'611.9
2017-Aug-09 17:25N 49°52' W 002°41'511.4
2017-Aug-09 17:00N 49°50' W 002°48'611.1
2017-Aug-09 16:29N 49°48' W 002°56'610.6
2017-Aug-09 15:56N 49°45' W 003°04'410.4
2017-Aug-09 15:30N 49°43' W 003°10'510.2
2017-Aug-09 15:00N 49°40' W 003°16'5 9.9
2017-Aug-09 14:30N 49°38' W 003°23'5 9.6
2017-Aug-09 14:00N 49°35' W 003°29'7110.3
2017-Aug-09 07:09N 48°59' W 005°03'211.6
2017-Aug-09 07:00N 48°58' W 005°06'611.7
2017-Aug-09 06:30N 48°56' W 005°13'611.9
2017-Aug-09 06:00N 48°53' W 005°21'612.3
2017-Aug-09 05:30N 48°50' W 005°29'50011.2
2017-Aug-07 08:51N 41°07' W 009°57'410.4
2017-Aug-07 08:27N 41°03' W 009°57'510.3
2017-Aug-07 08:00N 40°59' W 009°57'510.4
2017-Aug-07 07:30N 40°53' W 009°57'510.8
2017-Aug-07 07:00N 40°48' W 009°57'610.7
2017-Aug-07 06:28N 40°42' W 009°57'510.7
2017-Aug-07 06:00N 40°37' W 009°57'610.7
2017-Aug-07 05:25N 40°31' W 009°57'  
Track history (hours):
 
Tides and Currents Weather Stations Pressure Air Temp Water Temp Dewpoint Dewpoint Depression Visibility Wind Speed Wind Dir Waves Ship Positions

Dominia

Last reported at 2017-Aug-17 05:18 UTC. Time now 2017-Aug-17 17:34 UTC.
Position N 48°47' W 005°52'.

Length 166 m; draft 7 m.

Type: Ship. MMSI: 247273400.

Date/timePositionNaut miles runAvg speedWind from/ knotsBaromVisibWave heightAir tempDewpointWater temp
2017-Aug-17 05:18N 48°47' W 005°52'412.9
2017-Aug-17 05:00N 48°50' W 005°49'612.5
2017-Aug-17 04:30N 48°55' W 005°43'712.6
2017-Aug-17 03:56N 48°59' W 005°34'812.4
2017-Aug-17 03:16N 49°04' W 005°23'312.1
2017-Aug-17 03:00N 49°05' W 005°19'6210.9
2017-Aug-16 21:19N 49°38' W 003°59'411.3
2017-Aug-16 21:00N 49°40' W 003°54'611.6
2017-Aug-16 20:30N 49°43' W 003°46'612.1
2017-Aug-16 20:00N 49°46' W 003°38'612.7
2017-Aug-16 19:30N 49°49' W 003°30'612.8
2017-Aug-16 19:00N 49°52' W 003°21'713.0
2017-Aug-16 18:30N 49°55' W 003°12'713.0
2017-Aug-16 18:00N 49°58' W 003°03'612.6
2017-Aug-16 17:30N 50°01' W 002°54'612.4
2017-Aug-16 17:00N 50°02' W 002°45'612.0
2017-Aug-16 16:30N 50°04' W 002°36'611.4
2017-Aug-16 16:00N 50°05' W 002°27'510.9
2017-Aug-16 15:30N 50°07' W 002°19'510.5
2017-Aug-16 15:00N 50°08' W 002°11'510.1
2017-Aug-16 14:31N 50°09' W 002°03'5 9.9
2017-Aug-16 14:00N 50°11' W 001°56'5 9.8
2017-Aug-16 13:30N 50°12' W 001°49'510.1
2017-Aug-16 13:00N 50°13' W 001°41'510.5
2017-Aug-16 12:30N 50°14' W 001°33'611.2
2017-Aug-16 12:01N 50°16' W 001°25'611.9
2017-Aug-16 11:30N 50°18' W 001°15'812.7
2017-Aug-16 10:52N 50°20' W 001°03'613.6
2017-Aug-16 10:27N 50°21' W 000°55'613.8
2017-Aug-16 10:00N 50°23' W 000°45'713.9
2017-Aug-16 09:28N 50°25' W 000°34'613.9
2017-Aug-16 09:00N 50°27' W 000°24'713.8
2017-Aug-16 08:30N 50°28' W 000°14'713.6
2017-Aug-16 08:01N 50°30' W 000°04'713.5
2017-Aug-16 07:30N 50°32' E 000°07'713.2
2017-Aug-16 07:00N 50°33' E 000°17'713.0
2017-Aug-16 06:30N 50°35' E 000°27'612.6
2017-Aug-16 06:00N 50°37' E 000°36'612.3
2017-Aug-16 05:30N 50°40' E 000°44'612.0
2017-Aug-16 05:01N 50°44' E 000°52'611.8
2017-Aug-16 04:31N 50°48' E 000°59'611.7
2017-Aug-16 04:01N 50°52' E 001°05'611.8
2017-Aug-16 03:30N 50°56' E 001°12'612.2
2017-Aug-16 03:00N 51°00' E 001°19'713.0
2017-Aug-16 02:30N 51°04' E 001°28'714.2
2017-Aug-16 02:00N 51°08' E 001°37'714.5
2017-Aug-16 01:30N 51°13' E 001°45'714.5
2017-Aug-16 01:01N 51°19' E 001°51'713.6
2017-Aug-16 00:31N 51°25' E 001°58'612.0
2017-Aug-16 00:00N 51°23' E 002°07'612.8
2017-Aug-15 23:30N 51°21' E 002°16'612.8
2017-Aug-15 23:01N 51°22' E 002°26'612.6
2017-Aug-15 22:30N 51°23' E 002°36'611.4
2017-Aug-15 22:01N 51°22' E 002°45'612.5
2017-Aug-15 21:31N 51°23' E 002°55'612.5
2017-Aug-15 21:01N 51°24' E 003°05'612.9
2017-Aug-15 20:31N 51°25' E 003°15'713.1
2017-Aug-15 20:00N 51°25' E 003°26'611.4
2017-Aug-15 19:31N 51°26' E 003°35'611.5
2017-Aug-15 19:00N 51°23' E 003°43'611.7
2017-Aug-15 18:30N 51°21' E 003°52'510.4
2017-Aug-15 18:00N 51°25' E 003°58'3 6.1
2017-Aug-15 17:31N 51°24' E 004°02'5 9.2
2017-Aug-15 17:01N 51°23' E 004°09'4 8.3
2017-Aug-15 16:31N 51°21' E 004°15'1 2.4
2017-Aug-15 16:01N 51°21' E 004°17'0 0.0
2017-Aug-15 15:30N 51°21' E 004°17'0 0.8
2017-Aug-15 15:00N 51°21' E 004°18'1 1.7
2017-Aug-15 14:30N 51°20' E 004°18'0 0.6
2017-Aug-15 13:47N 51°20' E 004°18'0 0.0
2017-Aug-15 13:29N 51°20' E 004°18'0 0.0
2017-Aug-15 12:59N 51°20' E 004°18'0 0.0
2017-Aug-15 11:47N 51°20' E 004°18'0 0.0
2017-Aug-15 11:29N 51°20' E 004°18'0 0.0
2017-Aug-15 09:44N 51°20' E 004°18'0 0.0
2017-Aug-15 09:17N 51°20' E 004°18'0 0.0
2017-Aug-15 08:59N 51°20' E 004°18'0 0.0
2017-Aug-15 07:44N 51°20' E 004°18'0 0.0
2017-Aug-15 07:02N 51°20' E 004°18'0 0.0
2017-Aug-15 06:50N 51°20' E 004°18'0 0.0
2017-Aug-15 06:29N 51°20' E 004°18'0 0.0
2017-Aug-15 05:32N 51°20' E 004°18'0 0.0
2017-Aug-15 05:26N 51°20' E 004°18'0 0.0
2017-Aug-15 04:56N 51°20' E 004°18'0 0.0
2017-Aug-15 04:20N 51°20' E 004°18'0 0.0
2017-Aug-15 03:56N 51°20' E 004°18'0 0.0
2017-Aug-15 03:20N 51°20' E 004°18'0 0.0
2017-Aug-15 02:53N 51°20' E 004°18'0 0.0
2017-Aug-15 02:17N 51°20' E 004°18'0 0.0
2017-Aug-15 01:14N 51°20' E 004°18'0 0.0
2017-Aug-15 00:53N 51°20' E 004°18'0 0.0
2017-Aug-15 00:26N 51°20' E 004°18'0 0.0
2017-Aug-14 23:56N 51°20' E 004°18'0 0.0
2017-Aug-14 22:35N 51°20' E 004°18'0 0.0
2017-Aug-14 22:14N 51°20' E 004°18'0 0.0
2017-Aug-14 21:59N 51°20' E 004°18'0 0.0
2017-Aug-14 21:29N 51°20' E 004°18'0 0.0
2017-Aug-14 20:56N 51°20' E 004°18'0 0.0
2017-Aug-14 20:23N 51°20' E 004°18'0 0.0
2017-Aug-14 19:59N 51°20' E 004°18'0 0.0
2017-Aug-14 19:26N 51°20' E 004°18'0 0.0
2017-Aug-14 18:50N 51°20' E 004°18'0 0.0
2017-Aug-14 17:53N 51°20' E 004°18'0 0.0
2017-Aug-14 16:11N 51°20' E 004°18'0 0.0
2017-Aug-14 15:54N 51°20' E 004°18'0 0.3
2017-Aug-14 15:30N 51°20' E 004°18'2 4.7
2017-Aug-14 15:00N 51°18' E 004°20'0 0.0
2017-Aug-14 14:30N 51°18' E 004°20'0 0.0
2017-Aug-14 14:00N 51°18' E 004°20'0 0.0
2017-Aug-14 13:30N 51°18' E 004°20'0 0.0
2017-Aug-14 13:00N 51°18' E 004°20'0 0.0
2017-Aug-14 12:30N 51°18' E 004°20'0 0.0
2017-Aug-14 12:00N 51°18' E 004°20'0 0.0
2017-Aug-14 11:30N 51°18' E 004°20'0 0.0
2017-Aug-14 11:00N 51°18' E 004°20'0 0.0
2017-Aug-14 10:30N 51°18' E 004°20'0 0.0
2017-Aug-14 10:00N 51°18' E 004°20'0 0.0
2017-Aug-14 09:30N 51°18' E 004°20'0 0.0
2017-Aug-14 09:00N 51°18' E 004°20'0 0.0
2017-Aug-14 08:30N 51°18' E 004°20'0 0.0
2017-Aug-14 08:00N 51°18' E 004°20'0 0.0
2017-Aug-14 07:30N 51°18' E 004°20'0 0.0
2017-Aug-14 07:00N 51°18' E 004°20'0 0.0
2017-Aug-14 06:30N 51°18' E 004°20'0 0.0
2017-Aug-14 06:00N 51°18' E 004°20'0 0.0
2017-Aug-14 05:30N 51°18' E 004°20'0 0.0
2017-Aug-14 05:00N 51°18' E 004°20'0 0.0
2017-Aug-14 04:30N 51°18' E 004°20'0 0.0
2017-Aug-14 03:57N 51°18' E 004°20'0 0.0
2017-Aug-14 03:30N 51°18' E 004°20'0 0.0
2017-Aug-14 03:00N 51°18' E 004°20'0 0.0
2017-Aug-14 02:30N 51°18' E 004°20'0 0.0
2017-Aug-14 02:00N 51°18' E 004°20'0 0.0
2017-Aug-14 01:30N 51°18' E 004°20'0 0.0
2017-Aug-14 01:00N 51°18' E 004°20'0 0.0
2017-Aug-14 00:30N 51°18' E 004°20'0 0.0
2017-Aug-14 00:00N 51°18' E 004°20'0 0.0
2017-Aug-13 23:30N 51°18' E 004°20'0 0.0
2017-Aug-13 23:00N 51°18' E 004°20'0 0.0
2017-Aug-13 22:27N 51°18' E 004°20'0 0.0
2017-Aug-13 22:00N 51°18' E 004°20'0 0.0
2017-Aug-13 21:30N 51°18' E 004°20'0 0.0
2017-Aug-13 21:00N 51°18' E 004°20'0 0.0
2017-Aug-13 20:30N 51°18' E 004°20'0 0.0
2017-Aug-13 20:00N 51°18' E 004°20'0 0.0
2017-Aug-13 19:30N 51°18' E 004°20'0 0.0
2017-Aug-13 19:00N 51°18' E 004°20'0 0.0
2017-Aug-13 18:30N 51°18' E 004°20'0 0.0
2017-Aug-13 18:00N 51°18' E 004°20'0 0.0
2017-Aug-13 17:30N 51°18' E 004°20'0 0.0
2017-Aug-13 17:00N 51°18' E 004°20'0 0.0
2017-Aug-13 16:30N 51°18' E 004°20'0 0.0
2017-Aug-13 16:00N 51°18' E 004°20'0 0.0
2017-Aug-13 15:30N 51°18' E 004°20'0 0.0
2017-Aug-13 15:00N 51°18' E 004°20'0 0.0
2017-Aug-13 14:30N 51°18' E 004°20'0 0.0
2017-Aug-13 13:54N 51°18' E 004°20'0 0.0
2017-Aug-13 13:30N 51°18' E 004°20'0 0.0
2017-Aug-13 13:00N 51°18' E 004°20'0 0.0
2017-Aug-13 12:30N 51°18' E 004°20'0 0.0
2017-Aug-13 12:00N 51°18' E 004°20'0 0.0
2017-Aug-13 11:30N 51°18' E 004°20'0 0.0
2017-Aug-13 11:00N 51°18' E 004°20'0 0.0
2017-Aug-13 10:04N 51°18' E 004°20'0 0.0
2017-Aug-13 09:52N 51°18' E 004°20'0 0.0
2017-Aug-11 18:32N 51°18' E 004°20'0 0.1
2017-Aug-11 18:26N 51°18' E 004°20'0 0.0
2017-Aug-11 17:59N 51°18' E 004°20'0 0.0
2017-Aug-11 17:29N 51°18' E 004°20'0 0.0
2017-Aug-11 16:56N 51°18' E 004°20'0 0.0
2017-Aug-11 16:29N 51°18' E 004°20'0 0.0
2017-Aug-11 15:59N 51°18' E 004°20'0 0.0
2017-Aug-11 15:29N 51°18' E 004°20'0 0.0
2017-Aug-11 14:59N 51°18' E 004°20'0 0.0
2017-Aug-11 13:59N 51°18' E 004°20'0 0.0
2017-Aug-11 13:29N 51°18' E 004°20'0 0.0
2017-Aug-11 12:59N 51°18' E 004°20'0 0.0
2017-Aug-11 12:29N 51°18' E 004°20'0 0.0
2017-Aug-11 11:59N 51°18' E 004°20'0 0.0
2017-Aug-11 11:29N 51°18' E 004°20'0 0.0
2017-Aug-11 10:56N 51°18' E 004°20'0 0.0
2017-Aug-11 10:26N 51°18' E 004°20'0 0.0
2017-Aug-11 09:59N 51°18' E 004°20'0 0.0
2017-Aug-11 09:29N 51°18' E 004°20'0 0.0
2017-Aug-11 08:59N 51°18' E 004°20'0 0.0
2017-Aug-11 08:29N 51°18' E 004°20'0 0.0
2017-Aug-11 07:56N 51°18' E 004°20'0 0.0
2017-Aug-11 07:29N 51°18' E 004°20'0 0.0
2017-Aug-11 06:59N 51°18' E 004°20'0 0.0
2017-Aug-11 06:29N 51°18' E 004°20'0 0.0
2017-Aug-11 05:56N 51°18' E 004°20'0 0.0
2017-Aug-11 05:29N 51°18' E 004°20'0 0.0
2017-Aug-11 04:59N 51°18' E 004°20'0 0.0
2017-Aug-11 04:20N 51°18' E 004°20'0 0.0
2017-Aug-11 03:59N 51°18' E 004°20'0 0.0
2017-Aug-11 03:26N 51°18' E 004°20'0 0.0
2017-Aug-11 02:56N 51°18' E 004°20'0 0.0
2017-Aug-11 02:29N 51°18' E 004°20'0 0.0
2017-Aug-11 01:59N 51°18' E 004°20'0 0.0
2017-Aug-11 01:26N 51°18' E 004°20'0 0.0
2017-Aug-11 00:59N 51°18' E 004°20'0 0.0
2017-Aug-11 00:29N 51°18' E 004°20'0 0.0
2017-Aug-10 23:59N 51°18' E 004°20'0 0.0
2017-Aug-10 23:29N 51°18' E 004°20'0 0.0
2017-Aug-10 23:00N 51°18' E 004°20'1 1.2
2017-Aug-10 22:30N 51°18' E 004°20'3 5.3
2017-Aug-10 22:00N 51°20' E 004°18'1 1.0
2017-Aug-10 21:30N 51°21' E 004°17'0 0.0
2017-Aug-10 21:01N 51°21' E 004°17'0 0.0
2017-Aug-10 20:31N 51°21' E 004°17'0 0.3
2017-Aug-10 20:01N 51°21' E 004°17'2 4.1
2017-Aug-10 19:30N 51°21' E 004°14'3 6.1
2017-Aug-10 19:00N 51°23' E 004°10'4 8.6
2017-Aug-10 18:30N 51°23' E 004°03'4 8.5
2017-Aug-10 18:00N 51°26' E 003°59'5 9.8
2017-Aug-10 17:30N 51°22' E 003°55'5 9.9
2017-Aug-10 17:00N 51°21' E 003°47'510.2
2017-Aug-10 16:30N 51°25' E 003°42'510.2
2017-Aug-10 16:00N 51°25' E 003°34'510.5
2017-Aug-10 15:30N 51°25' E 003°25'713.1
2017-Aug-10 15:00N 51°25' E 003°15'713.2
2017-Aug-10 14:30N 51°24' E 003°04'713.1
2017-Aug-10 14:00N 51°22' E 002°54'713.3
2017-Aug-10 13:30N 51°22' E 002°44'4 8.2
2017-Aug-10 13:00N 51°22' E 002°37'611.8
2017-Aug-10 12:30N 51°21' E 002°28'612.4
2017-Aug-10 12:00N 51°19' E 002°19'611.6
2017-Aug-10 11:30N 51°16' E 002°11'611.1
2017-Aug-10 11:00N 51°13' E 002°03'510.3
2017-Aug-10 10:30N 51°11' E 001°56'5 9.7
2017-Aug-10 10:00N 51°08' E 001°49'5 9.4
2017-Aug-10 09:30N 51°05' E 001°44'5 9.0
2017-Aug-10 09:00N 51°02' E 001°38'4 8.9
2017-Aug-10 08:30N 50°59' E 001°33'5 9.2
2017-Aug-10 08:00N 50°55' E 001°29'5 9.3
2017-Aug-10 07:29N 50°50' E 001°27'5610.3
2017-Aug-10 02:06N 50°22' E 000°11'111.0
2017-Aug-10 02:00N 50°22' E 000°10'611.1
2017-Aug-10 01:30N 50°20' E 000°02'611.2
2017-Aug-10 01:00N 50°19' W 000°07'611.1
2017-Aug-10 00:30N 50°17' W 000°16'2312.5
2017-Aug-09 22:41N 50°12' W 000°50'214.0
2017-Aug-09 22:31N 50°11' W 000°54'714.3
2017-Aug-09 22:00N 50°10' W 001°05'714.7
2017-Aug-09 21:30N 50°07' W 001°16'714.9
2017-Aug-09 21:00N 50°05' W 001°27'715.0
2017-Aug-09 20:30N 50°03' W 001°38'815.1
2017-Aug-09 20:01N 50°02' W 001°49'714.8
2017-Aug-09 19:30N 50°00' W 002°01'714.2
2017-Aug-09 19:00N 49°58' W 002°11'1313.0
2017-Aug-09 18:02N 49°54' W 002°30'112.3
2017-Aug-09 17:55N 49°54' W 002°32'611.9
2017-Aug-09 17:25N 49°52' W 002°41'511.4
2017-Aug-09 17:00N 49°50' W 002°48'611.1
2017-Aug-09 16:29N 49°48' W 002°56'610.6
2017-Aug-09 15:56N 49°45' W 003°04'410.4
2017-Aug-09 15:30N 49°43' W 003°10'510.2
2017-Aug-09 15:00N 49°40' W 003°16'5 9.9
2017-Aug-09 14:30N 49°38' W 003°23'5 9.6
2017-Aug-09 14:00N 49°35' W 003°29'7110.3
2017-Aug-09 07:09N 48°59' W 005°03'211.6
2017-Aug-09 07:00N 48°58' W 005°06'611.7
2017-Aug-09 06:30N 48°56' W 005°13'611.9
2017-Aug-09 06:00N 48°53' W 005°21'612.3
2017-Aug-09 05:30N 48°50' W 005°29'50011.2
2017-Aug-07 08:51N 41°07' W 009°57'410.4
2017-Aug-07 08:27N 41°03' W 009°57'510.3
2017-Aug-07 08:00N 40°59' W 009°57'510.4
2017-Aug-07 07:30N 40°53' W 009°57'510.8
2017-Aug-07 07:00N 40°48' W 009°57'610.7
2017-Aug-07 06:28N 40°42' W 009°57'510.7
2017-Aug-07 06:00N 40°37' W 009°57'610.7
2017-Aug-07 05:25N 40°31' W 009°57'  

Dump ship's entire track history